Time;durP1;ratioP1;P1;durP2;ratioP2;P2;SDS_P1;SDS_P2;PMS_P1;PMS_P2;Temp;Humidity;BMP_temperature;BMP_pressure;BME280_temperature;BME280_humidity;BME280_pressure;Samples;Min_cycle;Max_cycle;Signal;HPM_P1;HPM_P2
2021/01/13 00:00:21;;;;;;;14.32;5.30;;;23.20;55.50;;;;;;5094629;28;20024;-54
2021/01/13 00:02:47;;;;;;;15.15;5.40;;;23.20;55.30;;;;;;5094205;28;20097;-55
2021/01/13 00:05:14;;;;;;;10.40;5.13;;;23.30;55.20;;;;;;5093775;28;20085;-55
2021/01/13 00:07:44;;;;;;;13.35;5.47;;;23.30;55.10;;;;;;5094529;28;20024;-55
2021/01/13 00:10:12;;;;;;;9.95;4.63;;;23.40;55.00;;;;;;5094122;28;20020;-54
2021/01/13 00:12:39;;;;;;;10.10;4.60;;;23.40;54.90;;;;;;5094306;28;20032;-55
2021/01/13 00:15:07;;;;;;;8.15;4.50;;;23.40;54.80;;;;;;5094154;28;20028;-56
2021/01/13 00:17:35;;;;;;;11.57;4.45;;;23.40;54.70;;;;;;5094138;28;20086;-56
2021/01/13 00:20:03;;;;;;;9.15;4.57;;;23.40;54.60;;;;;;5094363;28;20020;-55
2021/01/13 00:22:30;;;;;;;7.93;4.32;;;23.50;54.50;;;;;;5094115;28;20020;-55
2021/01/13 00:24:57;;;;;;;8.70;4.55;;;23.50;54.50;;;;;;5094290;28;20035;-55
2021/01/13 00:27:25;;;;;;;13.35;5.55;;;23.50;54.40;;;;;;5094233;28;20109;-55
2021/01/13 00:29:53;;;;;;;10.30;5.07;;;23.50;54.30;;;;;;5076017;28;20160;-55
2021/01/13 00:32:20;;;;;;;14.82;5.18;;;23.50;54.20;;;;;;5094154;28;20024;-54
2021/01/13 00:34:47;;;;;;;11.50;4.68;;;23.40;54.10;;;;;;5094198;28;20373;-55
2021/01/13 00:37:14;;;;;;;11.85;4.97;;;23.40;54.00;;;;;;5093814;28;20043;-56
2021/01/13 00:39:40;;;;;;;10.48;4.88;;;23.40;54.10;;;;;;5094044;28;20077;-56
2021/01/13 00:42:07;;;;;;;7.65;4.10;;;23.40;54.10;;;;;;5093936;28;20032;-56
2021/01/13 00:44:33;;;;;;;14.43;5.32;;;23.30;54.00;;;;;;5094255;28;20426;-55
2021/01/13 00:47:00;;;;;;;12.80;4.63;;;23.30;54.10;;;;;;5093961;28;20123;-56
2021/01/13 00:49:27;;;;;;;9.00;4.90;;;23.30;54.10;;;;;;5093804;28;20028;-56
2021/01/13 00:51:53;;;;;;;12.55;4.43;;;23.20;54.10;;;;;;5093696;28;20024;-55
2021/01/13 00:54:20;;;;;;;14.65;5.35;;;23.20;54.20;;;;;;5093668;28;20028;-56
2021/01/13 00:56:50;;;;;;;14.05;4.53;;;23.20;54.20;;;;;;5094286;28;20035;-55
2021/01/13 00:59:17;;;;;;;6.60;4.07;;;23.10;54.20;;;;;;5093740;28;20024;-55
2021/01/13 01:01:44;;;;;;;10.05;4.13;;;23.10;54.30;;;;;;5093471;28;20020;-55
2021/01/13 01:04:12;;;;;;;7.90;3.63;;;23.10;54.30;;;;;;5093262;28;20047;-55
2021/01/13 01:06:39;;;;;;;8.88;4.55;;;23.10;54.40;;;;;;5093912;28;20484;-56
2021/01/13 01:09:07;;;;;;;9.18;4.43;;;23.10;54.50;;;;;;5093617;28;20028;-56
2021/01/13 01:11:36;;;;;;;10.50;4.30;;;23.00;54.50;;;;;;5093228;28;20469;-56
2021/01/13 01:14:08;;;;;;;10.13;4.38;;;23.00;54.50;;;;;;5093276;28;20029;-55
2021/01/13 01:16:37;;;;;;;10.80;3.83;;;23.00;54.50;;;;;;5095809;28;20028;-55
2021/01/13 01:19:05;;;;;;;6.60;3.40;;;23.00;54.60;;;;;;5097463;28;20082;-54
2021/01/13 01:21:32;;;;;;;8.52;4.15;;;23.00;54.60;;;;;;5097748;28;20024;-55
2021/01/13 01:23:58;;;;;;;7.07;3.97;;;22.90;54.60;;;;;;5097854;28;20036;-56
2021/01/13 01:26:25;;;;;;;8.20;3.55;;;22.90;54.60;;;;;;5097607;28;20465;-56
2021/01/13 01:28:51;;;;;;;9.68;4.18;;;22.90;54.70;;;;;;5097545;28;20465;-55
2021/01/13 01:31:18;;;;;;;7.53;3.40;;;22.90;54.60;;;;;;5097348;28;20032;-55
2021/01/13 01:33:45;;;;;;;9.18;3.83;;;22.90;54.70;;;;;;5097300;28;20086;-54
2021/01/13 01:36:15;;;;;;;6.13;3.20;;;22.90;54.70;;;;;;5097607;28;20085;-55
2021/01/13 01:38:43;;;;;;;6.57;3.50;;;22.80;54.70;;;;;;5097275;28;20043;-54
2021/01/13 01:41:15;;;;;;;7.68;3.40;;;22.80;54.70;;;;;;5097047;28;20043;-55
2021/01/13 01:43:44;;;;;;;8.60;3.83;;;22.80;54.70;;;;;;5097000;28;20032;-55
2021/01/13 01:46:12;;;;;;;8.20;3.88;;;22.80;54.80;;;;;;5097080;28;20036;-55
2021/01/13 01:48:59;;;;;;;8.52;3.80;;;22.80;54.80;;;;;;5097079;28;20035;-56
2021/01/13 01:51:38;;;;;;;9.30;3.53;;;22.80;54.80;;;;;;5096941;28;20073;-55
2021/01/13 01:54:24;;;;;;;10.52;3.35;;;22.80;54.80;;;;;;5096911;28;20115;-55
2021/01/13 01:56:54;;;;;;;5.80;3.03;;;22.80;54.80;;;;;;5097356;28;20024;-55
2021/01/13 01:59:42;;;;;;;7.85;3.22;;;22.80;54.90;;;;;;5097423;28;20035;-55
2021/01/13 02:02:12;;;;;;;7.75;3.17;;;22.80;54.90;;;;;;5097452;28;20457;-55
2021/01/13 02:04:45;;;;;;;9.25;3.67;;;22.70;54.80;;;;;;5096833;28;20047;-54
2021/01/13 02:07:40;;;;;;;11.68;3.58;;;22.80;54.90;;;;;;5096698;28;20036;-55
2021/01/13 02:10:07;;;;;;;7.20;3.03;;;22.70;54.80;;;;;;5079273;28;20040;-54
2021/01/13 02:12:35;;;;;;;6.90;2.97;;;22.80;54.90;;;;;;5096745;28;20081;-54
2021/01/13 02:15:05;;;;;;;6.88;3.30;;;22.70;54.90;;;;;;5096647;28;20086;-56
2021/01/13 02:17:35;;;;;;;8.25;3.80;;;22.80;54.90;;;;;;5096635;28;20028;-56
2021/01/13 02:20:11;;;;;;;9.20;3.20;;;22.70;54.90;;;;;;5097114;28;20028;-56
2021/01/13 02:22:56;;;;;;;9.23;3.67;;;22.80;54.90;;;;;;5096206;28;20032;-56
2021/01/13 02:25:40;;;;;;;13.98;3.40;;;22.70;54.80;;;;;;5096411;28;20119;-56
2021/01/13 02:28:17;;;;;;;9.48;3.55;;;22.80;54.90;;;;;;5095932;28;20028;-55
2021/01/13 02:30:56;;;;;;;11.38;3.35;;;22.80;54.90;;;;;;5096467;28;20020;-54
2021/01/13 02:33:29;;;;;;;7.10;3.30;;;22.80;54.90;;;;;;5096810;28;20024;-54
2021/01/13 02:36:30;;;;;;;7.28;3.22;;;22.80;54.80;;;;;;5095754;28;20036;-54
2021/01/13 02:39:00;;;;;;;5.53;2.92;;;22.90;54.90;;;;;;5096865;28;20347;-54
2021/01/13 02:41:35;;;;;;;6.10;3.28;;;22.90;54.90;;;;;;5096230;28;20450;-54
2021/01/13 02:44:11;;;;;;;7.05;2.90;;;22.90;54.90;;;;;;5096895;28;20068;-56
2021/01/13 02:46:57;;;;;;;7.38;2.80;;;23.00;54.80;;;;;;5096143;28;20114;-55
2021/01/13 02:49:37;;;;;;;5.28;2.40;;;23.00;54.80;;;;;;5096613;28;20046;-56
2021/01/13 02:52:24;;;;;;;9.65;2.97;;;23.00;54.70;;;;;;5095807;28;20028;-56
2021/01/13 02:54:56;;;;;;;5.63;2.78;;;23.10;54.70;;;;;;5095886;28;20077;-57
2021/01/13 02:57:28;;;;;;;7.28;3.50;;;23.10;54.60;;;;;;5096091;28;20046;-57
2021/01/13 02:59:58;;;;;;;5.35;2.83;;;23.10;54.50;;;;;;5095918;28;20491;-56
2021/01/13 03:02:36;;;;;;;6.05;2.67;;;23.20;54.60;;;;;;5095800;28;20542;-56
2021/01/13 03:05:07;;;;;;;6.20;2.85;;;23.20;54.40;;;;;;5095795;28;20123;-54
2021/01/13 03:07:38;;;;;;;7.55;2.72;;;23.30;54.40;;;;;;5078439;28;20065;-54
2021/01/13 03:10:25;;;;;;;12.63;2.85;;;23.30;54.30;;;;;;5095763;28;20031;-56
2021/01/13 03:13:02;;;;;;;13.05;2.90;;;23.40;54.40;;;;;;5094984;28;20024;-55
2021/01/13 03:15:31;;;;;;;6.47;2.95;;;23.50;54.30;;;;;;5094852;28;20115;-55
2021/01/13 03:18:00;;;;;;;9.07;3.22;;;23.50;54.30;;;;;;5095758;28;20031;-56
2021/01/13 03:20:43;;;;;;;6.90;2.92;;;23.60;54.10;;;;;;5095732;28;20077;-56
2021/01/13 03:23:54;;;;;;;8.43;3.05;;;23.60;54.00;;;;;;5095692;28;20032;-55
2021/01/13 03:26:28;;;;;;;5.07;2.53;;;23.70;54.00;;;;;;5069343;28;20090;-55
2021/01/13 03:28:57;;;;;;;6.05;2.78;;;23.80;53.80;;;;;;5095377;28;20047;-55
2021/01/13 03:31:31;;;;;;;6.35;3.20;;;23.90;53.70;;;;;;5094812;28;20062;-58
2021/01/13 03:34:24;;;;;;;7.68;3.03;;;24.00;53.60;;;;;;5094932;28;20036;-57
2021/01/13 03:37:04;;;;;;;7.28;3.38;;;24.10;53.50;;;;;;5095715;28;20027;-55
2021/01/13 03:39:35;;;;;;;8.43;3.50;;;24.20;53.30;;;;;;5094543;28;20047;-54
2021/01/13 03:42:07;;;;;;;6.07;3.20;;;24.20;53.10;;;;;;5095059;28;20031;-56
2021/01/13 03:44:35;;;;;;;5.78;3.20;;;24.40;53.10;;;;;;5094592;28;20381;-56
2021/01/13 03:47:33;;;;;;;5.95;2.88;;;24.50;52.90;;;;;;5095153;28;20072;-55
2021/01/13 03:50:18;;;;;;;8.00;3.20;;;24.60;52.80;;;;;;5095405;28;20046;-54
2021/01/13 03:53:01;;;;;;;5.97;3.08;;;24.70;52.60;;;;;;5095149;28;20026;-54
2021/01/13 03:55:36;;;;;;;8.23;3.00;;;24.80;52.50;;;;;;5094918;28;20032;-57
2021/01/13 03:58:09;;;;;;;9.27;2.83;;;24.80;52.30;;;;;;5094455;28;20032;-55
2021/01/13 04:00:42;;;;;;;7.75;3.03;;;24.90;52.10;;;;;;5094313;28;20016;-57
2021/01/13 04:03:22;;;;;;;8.65;3.45;;;25.00;52.00;;;;;;5095141;28;20486;-55
2021/01/13 04:06:06;;;;;;;7.07;3.22;;;25.10;52.50;;;;;;5094562;28;20077;-55
2021/01/13 04:08:41;;;;;;;10.20;3.10;;;25.10;51.70;;;;;;5094976;28;20031;-56
2021/01/13 04:11:16;;;;;;;8.23;3.40;;;25.20;51.60;;;;;;5094833;28;20023;-57
2021/01/13 04:13:44;;;;;;;7.60;3.15;;;25.20;51.50;;;;;;5094165;28;20376;-55
2021/01/13 04:16:17;;;;;;;7.38;3.15;;;25.30;51.40;;;;;;5094111;28;20036;-54
2021/01/13 04:18:46;;;;;;;7.82;3.50;;;25.30;51.30;;;;;;5094675;28;20110;-54
2021/01/13 04:21:15;;;;;;;8.63;3.30;;;25.40;51.20;;;;;;5094199;28;20043;-54
2021/01/13 04:23:43;;;;;;;7.10;3.33;;;25.40;51.20;;;;;;5095112;28;20031;-56
2021/01/13 04:26:12;;;;;;;11.65;3.90;;;25.40;51.00;;;;;;5094212;28;20073;-56
2021/01/13 04:28:39;;;;;;;9.13;3.63;;;25.40;51.00;;;;;;5094182;28;20020;-57
2021/01/13 04:31:06;;;;;;;9.35;3.88;;;25.40;51.00;;;;;;5094276;28;20055;-56
2021/01/13 04:33:33;;;;;;;7.70;3.47;;;25.40;51.00;;;;;;5093991;28;20028;-56
2021/01/13 04:36:00;;;;;;;6.45;3.60;;;25.40;50.80;;;;;;5093617;28;20388;-56
2021/01/13 04:38:30;;;;;;;9.02;3.42;;;25.40;50.80;;;;;;5093452;28;20436;-57
2021/01/13 04:41:10;;;;;;;8.18;3.95;;;25.40;50.80;;;;;;5094048;28;20054;-56
2021/01/13 04:44:02;;;;;;;8.07;3.67;;;25.30;50.70;;;;;;5094310;28;20077;-57
2021/01/13 04:46:39;;;;;;;7.18;3.38;;;25.30;50.80;;;;;;5093848;28;20028;-57
2021/01/13 04:49:10;;;;;;;8.50;3.47;;;25.20;50.80;;;;;;5093791;28;20475;-56
2021/01/13 04:51:39;;;;;;;7.60;3.38;;;25.20;50.80;;;;;;5093090;28;20478;-55
2021/01/13 04:54:10;;;;;;;10.55;3.65;;;25.20;50.90;;;;;;5093792;28;20020;-56
2021/01/13 04:56:55;;;;;;;11.98;3.25;;;25.10;50.90;;;;;;5093795;28;20111;-56
2021/01/13 04:59:47;;;;;;;7.05;3.33;;;25.10;51.00;;;;;;5094103;28;20032;-57
2021/01/13 05:02:17;;;;;;;9.90;3.65;;;25.00;51.00;;;;;;5094236;28;20024;-57
2021/01/13 05:05:07;;;;;;;8.43;3.58;;;25.00;51.10;;;;;;5093649;28;20464;-56
2021/01/13 05:07:39;;;;;;;10.00;3.65;;;24.90;51.00;;;;;;5093518;28;20028;-57
2021/01/13 05:10:13;;;;;;;6.88;3.47;;;24.90;51.10;;;;;;5094118;28;20035;-57
2021/01/13 05:12:55;;;;;;;7.40;3.33;;;24.80;51.10;;;;;;5093740;28;20028;-57
2021/01/13 05:15:32;;;;;;;6.45;3.22;;;24.80;51.20;;;;;;5093629;28;20036;-57
2021/01/13 05:18:07;;;;;;;10.32;3.10;;;24.70;51.20;;;;;;5093381;28;20032;-56
2021/01/13 05:20:36;;;;;;;7.95;2.95;;;24.70;51.40;;;;;;5093562;28;20036;-57
2021/01/13 05:23:04;;;;;;;9.75;3.42;;;24.60;51.40;;;;;;5093327;28;20428;-57
2021/01/13 05:25:33;;;;;;;7.40;3.17;;;24.60;51.40;;;;;;5093120;28;20446;-57
2021/01/13 05:28:26;;;;;;;5.90;3.05;;;24.50;51.50;;;;;;5093459;28;20020;-55
2021/01/13 05:30:57;;;;;;;6.57;3.00;;;24.50;51.50;;;;;;5093569;28;20026;-57
2021/01/13 05:33:30;;;;;;;6.97;3.13;;;24.50;51.70;;;;;;5093474;28;20058;-56
2021/01/13 05:36:02;;;;;;;5.35;2.92;;;24.40;51.70;;;;;;5093170;28;20469;-56
2021/01/13 05:38:59;;;;;;;7.03;2.90;;;24.40;51.70;;;;;;5093857;28;20036;-56
2021/01/13 05:41:26;;;;;;;8.73;3.00;;;24.30;51.80;;;;;;5093767;28;20016;-56
2021/01/13 05:43:52;;;;;;;8.05;2.70;;;24.30;51.90;;;;;;5093131;28;20485;-55
2021/01/13 05:46:20;;;;;;;7.15;3.10;;;24.20;51.90;;;;;;5093369;28;20031;-56
2021/01/13 05:48:51;;;;;;;8.27;3.10;;;24.10;51.90;;;;;;5093068;28;20031;-55
2021/01/13 05:51:31;;;;;;;7.35;3.08;;;24.10;52.00;;;;;;5093210;28;20043;-56
2021/01/13 05:53:58;;;;;;;6.53;2.90;;;24.00;52.00;;;;;;5093550;28;20050;-56
2021/01/13 05:56:25;;;;;;;6.07;2.88;;;24.00;52.20;;;;;;5093314;28;20051;-56
2021/01/13 05:59:02;;;;;;;6.38;2.90;;;23.90;52.20;;;;;;5093053;28;20523;-57
2021/01/13 06:01:50;;;;;;;6.95;2.70;;;23.90;52.30;;;;;;5093763;28;20032;-54
2021/01/13 06:04:17;;;;;;;9.43;2.80;;;23.80;52.40;;;;;;5096907;28;20051;-54
2021/01/13 06:07:07;;;;;;;7.50;3.08;;;23.80;52.50;;;;;;5096722;28;20038;-55
2021/01/13 06:09:44;;;;;;;6.50;2.92;;;23.80;52.60;;;;;;5096616;28;20047;-57
2021/01/13 06:12:22;;;;;;;5.95;2.70;;;23.70;52.60;;;;;;5097056;28;20382;-57
2021/01/13 06:14:50;;;;;;;6.15;2.90;;;23.60;52.70;;;;;;5096687;28;20032;-57
2021/01/13 06:17:21;;;;;;;7.10;3.20;;;23.60;52.80;;;;;;5096410;28;20032;-55
2021/01/13 06:19:53;;;;;;;9.13;3.30;;;23.60;52.90;;;;;;5096521;28;20426;-56
2021/01/13 06:22:30;;;;;;;5.85;3.15;;;23.50;53.00;;;;;;5096457;28;20024;-56
2021/01/13 06:25:06;;;;;;;9.07;3.50;;;23.40;53.00;;;;;;5096221;28;20028;-55
2021/01/13 06:27:50;;;;;;;7.28;3.10;;;23.40;53.10;;;;;;5095886;28;20562;-53
2021/01/13 06:30:30;;;;;;;7.75;3.30;;;23.40;53.20;;;;;;5096639;28;20107;-54
2021/01/13 06:33:17;;;;;;;5.60;2.70;;;23.30;53.30;;;;;;5096687;28;20024;-55
2021/01/13 06:35:43;;;;;;;10.32;3.40;;;23.20;53.50;;;;;;5062297;28;20585;-57
2021/01/13 06:38:40;;;;;;;6.97;3.05;;;23.20;53.50;;;;;;5076315;28;20024;-57
2021/01/13 06:41:07;;;;;;;8.27;3.17;;;23.10;53.60;;;;;;5076047;28;20046;-57
2021/01/13 06:43:34;;;;;;;5.57;3.08;;;23.10;53.70;;;;;;5093301;28;20032;-57
2021/01/13 06:46:01;;;;;;;5.70;2.83;;;23.00;53.70;;;;;;5095813;28;20473;-56
2021/01/13 06:48:29;;;;;;;5.47;2.67;;;23.00;53.80;;;;;;5095834;28;20114;-57
2021/01/13 06:50:57;;;;;;;6.43;2.63;;;23.00;53.90;;;;;;5095672;28;20032;-57
2021/01/13 06:53:33;;;;;;;4.38;2.45;;;22.90;53.90;;;;;;5095722;28;20491;-58
2021/01/13 06:56:10;;;;;;;6.13;2.97;;;22.80;53.90;;;;;;5095899;28;20105;-57
2021/01/13 06:58:54;;;;;;;9.55;3.60;;;22.80;54.60;;;;;;5096256;28;20522;-57
2021/01/13 07:01:21;;;;;;;7.43;3.10;;;22.80;54.10;;;;;;5076062;28;20086;-55
2021/01/13 07:04:00;;;;;;;7.38;2.80;;;22.70;54.20;;;;;;5075573;28;20024;-55
2021/01/13 07:06:27;;;;;;;7.45;2.90;;;22.70;54.40;;;;;;5076181;28;20362;-55
2021/01/13 07:08:54;;;;;;;7.82;3.08;;;22.60;54.40;;;;;;5091924;28;20032;-57
2021/01/13 07:11:21;;;;;;;7.30;3.20;;;22.60;54.50;;;;;;5096086;28;20024;-57
2021/01/13 07:13:55;;;;;;;7.15;2.72;;;22.60;54.60;;;;;;5095784;28;20081;-57
2021/01/13 07:16:31;;;;;;;7.50;3.30;;;22.50;54.60;;;;;;5095719;28;20485;-55
2021/01/13 07:19:00;;;;;;;7.78;2.92;;;22.50;54.70;;;;;;5095535;28;20069;-55
2021/01/13 07:21:40;;;;;;;11.15;3.42;;;22.40;54.70;;;;;;5095017;28;20055;-55
2021/01/13 07:24:15;;;;;;;8.77;3.25;;;22.40;54.80;;;;;;5095416;28;20458;-55
2021/01/13 07:26:43;;;;;;;7.50;3.00;;;22.30;54.90;;;;;;5095378;28;20115;-57
2021/01/13 07:29:11;;;;;;;7.35;2.67;;;22.30;54.90;;;;;;5095118;28;20377;-56
2021/01/13 07:31:37;;;;;;;5.93;2.97;;;22.20;54.90;;;;;;5094962;28;20081;-54
2021/01/13 07:34:25;;;;;;;7.35;2.80;;;22.20;55.00;;;;;;5094720;28;20032;-56
2021/01/13 07:36:58;;;;;;;5.70;2.70;;;22.20;55.10;;;;;;5095017;28;20068;-57
2021/01/13 07:39:46;;;;;;;8.20;2.83;;;22.10;55.10;;;;;;5095733;28;20107;-57
2021/01/13 07:42:33;;;;;;;7.32;2.88;;;22.10;55.40;;;;;;5053386;28;20397;-54
2021/01/13 07:45:11;;;;;;;7.95;3.00;;;22.10;55.50;;;;;;5094929;28;20483;-56
2021/01/13 07:48:06;;;;;;;8.40;2.75;;;22.00;55.70;;;;;;5094689;28;20028;-56
2021/01/13 07:50:38;;;;;;;7.13;2.90;;;22.00;55.70;;;;;;5095253;28;20020;-57
2021/01/13 07:53:11;;;;;;;8.23;2.97;;;21.90;55.80;;;;;;5077253;28;20047;-58
2021/01/13 07:55:43;;;;;;;5.65;2.40;;;21.90;55.80;;;;;;5094938;28;20038;-56
2021/01/13 07:58:22;;;;;;;8.15;2.70;;;21.80;55.70;;;;;;5095512;28;20032;-55
2021/01/13 08:01:16;;;;;;;6.05;2.47;;;21.80;55.90;;;;;;5094545;28;20050;-56
2021/01/13 08:04:19;;;;;;;8.60;2.60;;;21.80;55.80;;;;;;5074673;28;20039;-55
2021/01/13 08:06:48;;;;;;;7.25;2.47;;;21.70;55.80;;;;;;5074043;28;20405;-54
2021/01/13 08:09:22;;;;;;;5.43;2.60;;;21.70;55.90;;;;;;5084172;28;20046;-54
2021/01/13 08:12:09;;;;;;;5.80;2.35;;;21.70;56.10;;;;;;5094142;28;20036;-54
2021/01/13 08:15:07;;;;;;;8.73;2.83;;;21.60;56.00;;;;;;5095658;28;20077;-54
2021/01/13 08:18:12;;;;;;;7.85;2.50;;;21.60;56.50;;;;;;5094104;28;20032;-54
2021/01/13 08:20:42;;;;;;;6.53;2.25;;;21.50;56.10;;;;;;5094337;28;20051;-54
2021/01/13 08:23:11;;;;;;;3.83;2.00;;;21.50;56.20;;;;;;5094717;28;20111;-55
2021/01/13 08:25:44;;;;;;;6.90;2.30;;;21.50;56.20;;;;;;5093413;28;20036;-54
2021/01/13 17:41:49;;;;;;;21.40;4.90;;;15.80;68.80;;;;;;5131769;27;20797;-54
2021/01/13 17:44:16;;;;;;;8.25;3.80;;;16.00;70.10;;;;;;5116576;28;20070;-53
2021/01/13 17:46:43;;;;;;;17.33;4.05;;;16.00;69.70;;;;;;5111098;28;20085;-54
2021/01/13 17:49:09;;;;;;;16.65;4.47;;;16.10;69.50;;;;;;5110988;28;20027;-53
2021/01/13 17:51:41;;;;;;;14.07;4.40;;;16.10;69.20;;;;;;5110474;28;20411;-54
2021/01/13 17:54:11;;;;;;;22.23;4.72;;;16.20;69.10;;;;;;5103601;28;20042;-54
2021/01/13 17:56:40;;;;;;;19.85;4.90;;;16.30;68.90;;;;;;5109797;28;20031;-54
2021/01/13 17:59:07;;;;;;;20.10;4.63;;;16.30;68.70;;;;;;5109156;28;20099;-54
2021/01/13 18:01:35;;;;;;;24.73;5.15;;;16.40;68.70;;;;;;5110856;28;20031;-55
2021/01/13 18:04:08;;;;;;;14.25;4.80;;;16.40;68.60;;;;;;5110678;28;20036;-54
2021/01/13 18:06:35;;;;;;;19.33;3.92;;;16.50;68.30;;;;;;5092857;28;20457;-54
2021/01/13 18:09:01;;;;;;;13.13;4.30;;;16.50;68.00;;;;;;5111471;28;20031;-54
2021/01/13 18:11:28;;;;;;;15.30;5.22;;;16.60;67.80;;;;;;5110041;28;20032;-53
2021/01/13 18:13:55;;;;;;;17.80;4.00;;;16.70;67.70;;;;;;5110236;28;20063;-55
2021/01/13 18:16:22;;;;;;;16.05;3.67;;;16.70;67.50;;;;;;5110847;28;20032;-55
2021/01/13 18:18:49;;;;;;;11.18;3.78;;;16.70;67.90;;;;;;5110132;28;20111;-54
2021/01/13 18:21:16;;;;;;;17.23;4.20;;;16.80;67.20;;;;;;5110602;28;20028;-53
2021/01/13 18:23:42;;;;;;;14.45;3.72;;;16.80;67.10;;;;;;5109824;28;20038;-54
2021/01/13 18:26:09;;;;;;;17.30;4.40;;;16.90;67.10;;;;;;5109317;28;20574;-54
2021/01/13 18:28:37;;;;;;;10.30;3.80;;;16.90;67.40;;;;;;5110057;28;20035;-55
2021/01/13 18:31:03;;;;;;;11.48;4.00;;;16.90;66.90;;;;;;5109915;28;20051;-55
2021/01/13 18:33:30;;;;;;;16.80;4.43;;;16.90;66.70;;;;;;5110251;28;20020;-54
2021/01/13 18:35:56;;;;;;;9.30;3.45;;;17.00;66.60;;;;;;5110044;28;20035;-55
2021/01/13 18:38:23;;;;;;;11.55;4.03;;;17.00;66.40;;;;;;5109820;28;20055;-55
2021/01/13 18:40:49;;;;;;;17.60;4.60;;;17.00;66.30;;;;;;5107004;28;20036;-54
2021/01/13 18:43:21;;;;;;;14.95;3.88;;;17.00;66.20;;;;;;5078156;28;20448;-53
2021/01/13 18:45:49;;;;;;;13.00;3.85;;;17.10;66.10;;;;;;5096155;28;20062;-54
2021/01/13 18:48:16;;;;;;;11.65;3.90;;;17.10;65.90;;;;;;5095340;28;20040;-54
2021/01/13 18:50:43;;;;;;;10.57;3.70;;;17.10;65.90;;;;;;5096467;28;20032;-55
2021/01/13 18:53:10;;;;;;;16.10;4.03;;;17.10;65.70;;;;;;5096236;28;20061;-55
2021/01/13 18:55:37;;;;;;;16.58;3.97;;;17.10;65.70;;;;;;5095883;28;20380;-55
2021/01/13 18:58:04;;;;;;;22.92;3.88;;;17.10;65.70;;;;;;5095951;28;20028;-55
2021/01/13 19:00:32;;;;;;;18.23;3.97;;;17.20;65.70;;;;;;5096156;28;20059;-55
2021/01/13 19:03:03;;;;;;;16.75;4.22;;;17.20;65.60;;;;;;5096071;28;20423;-55
2021/01/13 19:05:32;;;;;;;21.80;4.18;;;17.20;65.50;;;;;;5096390;28;20030;-55
2021/01/13 19:07:59;;;;;;;11.88;3.65;;;17.20;65.50;;;;;;5096285;28;20049;-55
2021/01/13 19:10:26;;;;;;;18.52;4.18;;;17.20;65.40;;;;;;5096362;28;20024;-55
2021/01/13 19:12:55;;;;;;;12.25;3.78;;;17.20;65.40;;;;;;5096376;28;20524;-55
2021/01/13 19:15:22;;;;;;;14.82;3.83;;;17.30;65.30;;;;;;5096102;28;20528;-55
2021/01/13 19:17:48;;;;;;;15.82;4.13;;;17.30;65.20;;;;;;5095799;28;20461;-55
2021/01/13 19:20:15;;;;;;;12.30;4.18;;;17.30;65.20;;;;;;5095924;28;20028;-55
2021/01/13 19:22:42;;;;;;;11.98;4.10;;;17.30;65.10;;;;;;5095900;28;20039;-55
2021/01/13 19:25:10;;;;;;;10.90;3.72;;;17.30;65.10;;;;;;5095986;28;20032;-55
2021/01/13 19:27:38;;;;;;;13.48;4.13;;;17.30;65.10;;;;;;5096641;28;20020;-55
2021/01/13 19:30:08;;;;;;;10.93;3.90;;;17.30;64.90;;;;;;5095686;28;20165;-55
2021/01/13 19:32:34;;;;;;;19.50;4.38;;;17.40;64.90;;;;;;5096001;28;20071;-55
2021/01/13 19:35:02;;;;;;;13.10;3.53;;;17.40;64.80;;;;;;5095802;28;20056;-55
2021/01/13 19:37:29;;;;;;;11.30;4.20;;;17.40;64.80;;;;;;5095741;28;20049;-55
2021/01/13 19:39:55;;;;;;;11.65;4.10;;;17.40;64.70;;;;;;5095297;28;20052;-55
2021/01/13 19:42:22;;;;;;;10.15;3.65;;;17.40;64.70;;;;;;5095638;28;20089;-55
2021/01/13 19:44:48;;;;;;;12.60;3.97;;;17.40;64.80;;;;;;5095298;28;20077;-55
2021/01/13 19:47:15;;;;;;;9.77;3.45;;;17.40;64.60;;;;;;5095583;28;20020;-55
2021/01/13 19:49:41;;;;;;;13.52;3.53;;;17.40;64.50;;;;;;5095361;28;20145;-55
2021/01/13 19:52:08;;;;;;;9.35;3.35;;;17.40;64.50;;;;;;5094900;28;20039;-55
2021/01/13 19:54:35;;;;;;;12.07;4.03;;;17.40;64.40;;;;;;5094757;28;20028;-55
2021/01/13 19:57:01;;;;;;;9.70;3.33;;;17.40;64.40;;;;;;5095279;28;20415;-55
2021/01/13 19:59:28;;;;;;;9.27;3.45;;;17.40;64.30;;;;;;5095333;28;20077;-55
2021/01/13 20:01:54;;;;;;;14.57;3.95;;;17.50;64.30;;;;;;5095010;28;20027;-55
2021/01/13 20:04:22;;;;;;;13.68;3.65;;;17.50;64.30;;;;;;5095125;28;20028;-55
2021/01/13 20:06:48;;;;;;;7.43;3.47;;;17.50;64.20;;;;;;5095159;28;20055;-55
2021/01/13 20:09:16;;;;;;;13.27;3.40;;;17.50;64.20;;;;;;5094751;28;20084;-55
2021/01/13 20:11:46;;;;;;;10.07;3.00;;;17.50;64.10;;;;;;5095538;28;20035;-55
2021/01/13 20:14:14;;;;;;;8.30;3.33;;;17.50;64.10;;;;;;5094985;28;20070;-55
2021/01/13 20:16:43;;;;;;;6.50;3.20;;;17.50;64.00;;;;;;5095131;28;20028;-55
2021/01/13 20:19:11;;;;;;;8.05;3.15;;;17.50;64.00;;;;;;5094593;28;20016;-55
2021/01/13 20:21:39;;;;;;;10.13;3.33;;;17.50;63.90;;;;;;5094825;28;20103;-55
2021/01/13 20:24:07;;;;;;;8.32;3.10;;;17.60;64.00;;;;;;5094748;28;20016;-55
2021/01/13 20:26:46;;;;;;;9.32;3.40;;;17.50;64.10;;;;;;5076418;28;20024;-55
2021/01/13 20:29:14;;;;;;;7.82;3.08;;;17.60;63.90;;;;;;5094883;28;20023;-55
2021/01/13 20:31:48;;;;;;;10.18;3.20;;;17.60;63.90;;;;;;5094265;28;20028;-55
2021/01/13 20:34:15;;;;;;;12.38;3.55;;;17.60;63.80;;;;;;5094407;28;20020;-55
2021/01/13 20:36:43;;;;;;;5.57;3.22;;;17.60;63.80;;;;;;5094565;28;20095;-55
2021/01/13 20:39:11;;;;;;;11.60;3.50;;;17.60;63.80;;;;;;5094415;28;20032;-55
2021/01/13 20:41:41;;;;;;;8.38;3.30;;;17.60;64.30;;;;;;5094318;28;20127;-55
2021/01/13 20:44:08;;;;;;;8.82;3.15;;;17.60;63.70;;;;;;5094216;28;20036;-55
2021/01/13 20:46:36;;;;;;;8.13;2.67;;;17.60;63.70;;;;;;5093765;28;20028;-55
2021/01/13 20:49:04;;;;;;;7.97;2.97;;;17.60;63.70;;;;;;5092938;28;20106;-54
2021/01/13 20:51:34;;;;;;;10.90;3.53;;;17.70;63.70;;;;;;5074086;28;20017;-55
2021/01/13 20:54:01;;;;;;;6.32;3.08;;;17.70;63.70;;;;;;5073920;28;20061;-55
2021/01/13 20:56:28;;;;;;;11.57;3.50;;;17.60;63.60;;;;;;5074004;28;20059;-55
2021/01/13 20:58:55;;;;;;;7.72;3.20;;;17.70;63.60;;;;;;5073906;28;20051;-55
2021/01/13 21:01:22;;;;;;;16.75;3.78;;;17.70;63.70;;;;;;5080770;28;20058;-54
2021/01/13 21:03:48;;;;;;;6.35;2.63;;;17.70;63.60;;;;;;5094172;28;20028;-54
2021/01/13 21:06:15;;;;;;;8.55;3.10;;;17.70;63.70;;;;;;5094128;28;20077;-54
2021/01/13 21:08:41;;;;;;;8.88;3.40;;;17.70;63.80;;;;;;5094763;28;20438;-54
2021/01/13 21:11:08;;;;;;;12.13;3.30;;;17.70;63.70;;;;;;5093943;28;20051;-55
2021/01/13 21:13:35;;;;;;;10.65;2.75;;;17.80;63.70;;;;;;5093998;28;20495;-55
2021/01/13 21:16:01;;;;;;;11.50;3.10;;;17.80;63.80;;;;;;5094191;28;20024;-55
2021/01/13 21:18:28;;;;;;;12.93;3.33;;;17.80;63.70;;;;;;5093862;28;20032;-54
2021/01/13 21:20:54;;;;;;;6.78;2.75;;;17.80;63.70;;;;;;5093490;28;20510;-55
2021/01/13 21:23:21;;;;;;;8.77;3.13;;;17.80;63.70;;;;;;5093979;28;20024;-55
2021/01/13 21:25:47;;;;;;;11.05;3.00;;;17.90;63.70;;;;;;5094058;28;20089;-55
2021/01/13 21:28:14;;;;;;;8.07;3.08;;;17.90;63.70;;;;;;5093888;28;20025;-55
2021/01/13 21:30:40;;;;;;;8.73;2.67;;;17.90;63.60;;;;;;5093657;28;20028;-56
2021/01/13 21:33:07;;;;;;;11.07;3.20;;;17.90;63.60;;;;;;5093842;28;20074;-56
2021/01/13 21:35:33;;;;;;;10.07;3.05;;;17.90;63.60;;;;;;5093037;28;20063;-55
2021/01/13 21:38:00;;;;;;;11.50;3.47;;;17.90;63.50;;;;;;5093436;28;20052;-55
2021/01/13 21:40:26;;;;;;;12.32;3.30;;;17.90;63.50;;;;;;5093776;28;20118;-55
2021/01/13 21:42:53;;;;;;;7.22;2.97;;;17.90;63.50;;;;;;5093466;28;20107;-56
2021/01/13 21:45:19;;;;;;;7.20;2.88;;;17.90;63.40;;;;;;5093702;28;20465;-56
2021/01/13 21:47:46;;;;;;;11.00;3.35;;;17.90;63.40;;;;;;5093300;28;20487;-55
2021/01/13 21:50:12;;;;;;;8.43;2.80;;;17.90;63.40;;;;;;5093160;28;20119;-56
2021/01/13 21:52:39;;;;;;;7.18;3.20;;;17.90;63.30;;;;;;5093522;28;20039;-56
2021/01/13 21:55:10;;;;;;;6.88;2.88;;;18.00;63.30;;;;;;5075719;28;20024;-56
2021/01/13 21:57:37;;;;;;;7.53;2.88;;;17.90;63.30;;;;;;5093389;28;20541;-56
2021/01/13 22:00:06;;;;;;;10.05;3.28;;;17.90;63.20;;;;;;5093606;28;20028;-56
2021/01/13 22:02:32;;;;;;;8.02;2.80;;;18.00;63.30;;;;;;5093270;28;20024;-56
2021/01/13 22:04:59;;;;;;;7.25;2.78;;;17.90;63.20;;;;;;5075345;28;20372;-55
2021/01/13 22:07:26;;;;;;;9.43;2.90;;;17.90;63.10;;;;;;5093767;28;20028;-56
2021/01/13 22:09:52;;;;;;;8.57;2.83;;;18.00;63.20;;;;;;5093389;28;20033;-56
2021/01/13 22:12:19;;;;;;;10.98;3.38;;;17.90;63.10;;;;;;5093482;28;20024;-56
2021/01/13 22:14:45;;;;;;;8.80;2.70;;;17.90;63.00;;;;;;5093677;28;20103;-55
2021/01/13 22:17:12;;;;;;;9.43;3.03;;;18.00;63.10;;;;;;5095556;28;20028;-56
2021/01/13 22:19:38;;;;;;;7.95;3.20;;;18.00;63.10;;;;;;5096795;28;20032;-55